Time;durP1;ratioP1;P1;durP2;ratioP2;P2;SDS_P1;SDS_P2;PMS_P1;PMS_P2;Temp;Humidity;BMP_temperature;BMP_pressure;BME280_temperature;BME280_humidity;BME280_pressure;Samples;Min_cycle;Max_cycle;Signal;HPM_P1;HPM_P2
2021/06/19 00:00:20;;;;;;;0.50;0.13;;;16.00;77.60;;;;;;4920738;29;20059;-75
2021/06/19 00:02:47;;;;;;;1.83;0.57;;;16.10;77.80;;;;;;4926904;29;20380;-72
2021/06/19 00:05:15;;;;;;;1.38;0.65;;;16.10;77.60;;;;;;4923103;29;20118;-73
2021/06/19 00:07:43;;;;;;;3.35;1.88;;;16.00;77.60;;;;;;4923651;29;20131;-72
2021/06/19 00:10:13;;;;;;;2.30;0.90;;;16.20;77.90;;;;;;4926121;29;20036;-71
2021/06/19 00:12:42;;;;;;;6.70;3.33;;;16.20;77.90;;;;;;4925273;29;20143;-72
2021/06/19 00:15:11;;;;;;;3.35;1.60;;;16.30;77.40;;;;;;4931621;29;20031;-71
2021/06/19 00:17:40;;;;;;;5.95;3.53;;;16.40;77.70;;;;;;4924619;29;20030;-72
2021/06/19 00:20:18;;;;;;;1.92;0.63;;;16.40;77.30;;;;;;4923176;29;20072;-76
2021/06/19 00:22:46;;;;;;;1.45;0.32;;;16.30;77.40;;;;;;4925316;29;20032;-72
2021/06/19 00:25:15;;;;;;;1.30;0.30;;;16.20;78.10;;;;;;4925326;29;20365;-72
2021/06/19 00:27:44;;;;;;;0.45;0.30;;;16.20;78.50;;;;;;4921032;29;20622;-73
2021/06/19 00:30:14;;;;;;;1.45;0.10;;;16.10;78.70;;;;;;4924722;29;20367;-73
2021/06/19 00:32:42;;;;;;;1.10;0.20;;;16.10;78.60;;;;;;4908598;29;20044;-73
2021/06/19 00:35:10;;;;;;;3.20;0.20;;;16.10;78.10;;;;;;4925456;29;20031;-74
2021/06/19 00:37:38;;;;;;;1.85;0.68;;;16.00;79.10;;;;;;4920379;29;20028;-72
2021/06/19 00:40:10;;;;;;;1.38;0.52;;;16.00;79.00;;;;;;4927390;29;20038;-72
2021/06/19 00:42:38;;;;;;;0.40;0.13;;;15.90;78.80;;;;;;4929146;29;20046;-71
2021/06/19 00:45:09;;;;;;;0.68;0.15;;;15.90;79.40;;;;;;4927371;29;20527;-71
2021/06/19 00:47:39;;;;;;;0.47;0.20;;;15.80;79.70;;;;;;4929068;29;20122;-73
2021/06/19 00:50:09;;;;;;;0.10;0.10;;;15.80;80.50;;;;;;4925399;29;20386;-76
2021/06/19 00:52:36;;;;;;;0.70;0.10;;;15.80;80.00;;;;;;4925244;29;20383;-71
2021/06/19 00:55:05;;;;;;;0.45;0.40;;;15.90;79.80;;;;;;4923620;29;20110;-72
2021/06/19 00:57:33;;;;;;;1.85;0.20;;;15.90;78.90;;;;;;4926329;29;20055;-71
2021/06/19 01:00:01;;;;;;;0.82;0.73;;;15.90;79.10;;;;;;4923171;29;20031;-72
2021/06/19 01:02:30;;;;;;;0.70;0.20;;;15.90;80.30;;;;;;4904443;29;20377;-73
2021/06/19 01:04:57;;;;;;;0.45;0.35;;;15.90;80.00;;;;;;4924647;29;20071;-72
2021/06/19 01:07:25;;;;;;;2.13;0.20;;;15.90;80.40;;;;;;4924332;29;20032;-72
2021/06/19 01:09:52;;;;;;;1.48;0.17;;;16.00;80.00;;;;;;4928341;29;20123;-70
2021/06/19 01:12:24;;;;;;;1.80;0.20;;;16.10;80.10;;;;;;4922280;29;20075;-72
2021/06/19 01:14:52;;;;;;;0.85;0.77;;;16.10;80.60;;;;;;4930676;29;20052;-74
2021/06/19 01:17:21;;;;;;;3.50;1.23;;;16.10;80.40;;;;;;4928311;29;20034;-71
2021/06/19 01:20:10;;;;;;;5.43;3.33;;;16.10;80.10;;;;;;4928867;29;20032;-76
2021/06/19 01:22:39;;;;;;;6.55;3.30;;;16.10;79.70;;;;;;4932876;29;20036;-74
2021/06/19 01:25:10;;;;;;;6.78;3.00;;;16.10;80.70;;;;;;4935061;29;20039;-72
2021/06/19 01:27:38;;;;;;;5.05;3.28;;;16.00;81.00;;;;;;4927134;29;20380;-74
2021/06/19 01:30:08;;;;;;;1.98;0.80;;;16.00;80.50;;;;;;4930956;29;20111;-71
2021/06/19 01:32:39;;;;;;;0.95;0.85;;;16.00;80.40;;;;;;4932125;29;20119;-74
2021/06/19 01:35:09;;;;;;;1.33;0.20;;;16.00;81.80;;;;;;4930519;29;20559;-72
2021/06/19 01:37:40;;;;;;;1.10;0.15;;;16.00;81.00;;;;;;4927124;29;20027;-72
2021/06/19 01:40:13;;;;;;;2.47;0.52;;;16.00;81.80;;;;;;4928237;29;20063;-72
2021/06/19 01:42:46;;;;;;;0.38;0.32;;;16.10;81.80;;;;;;4926943;29;20027;-72
2021/06/19 01:45:22;;;;;;;1.20;0.40;;;16.00;82.60;;;;;;4931643;29;20042;-72
2021/06/19 01:47:49;;;;;;;;;;;16.00;83.00;;;;;;4928943;29;20414;-75
2021/06/19 01:50:24;;;;;;;2.40;1.00;;;16.00;85.60;;;;;;4929137;29;19962;-71
2021/06/19 01:52:54;;;;;;;0.25;0.10;;;16.00;85.70;;;;;;4929875;29;20111;-70
2021/06/19 01:55:22;;;;;;;3.08;0.45;;;16.00;86.00;;;;;;4925474;29;20038;-71
2021/06/19 01:57:55;;;;;;;1.90;0.63;;;15.90;86.70;;;;;;4923475;29;20383;-70
2021/06/19 02:00:27;;;;;;;0.40;0.10;;;15.80;87.30;;;;;;4926844;29;20103;-70
2021/06/19 02:02:55;;;;;;;1.85;0.70;;;15.60;88.40;;;;;;4929517;29;20440;-71
2021/06/19 02:05:23;;;;;;;3.25;1.08;;;15.50;89.80;;;;;;4926983;29;20032;-71
2021/06/19 02:07:59;;;;;;;0.75;0.30;;;15.50;89.30;;;;;;4925162;29;20651;-70
2021/06/19 02:10:29;;;;;;;2.33;0.20;;;15.50;90.50;;;;;;4926163;29;20028;-70
2021/06/19 02:12:58;;;;;;;1.42;0.20;;;15.50;90.20;;;;;;4923693;29;20760;-71
2021/06/19 02:15:26;;;;;;;0.10;0.10;;;15.40;90.20;;;;;;4924067;29;20118;-73
2021/06/19 02:17:56;;;;;;;0.10;0.10;;;15.40;90.10;;;;;;4926763;29;20031;-75
2021/06/19 02:20:26;;;;;;;0.40;0.20;;;15.40;90.10;;;;;;4925366;29;20518;-71
2021/06/19 02:22:54;;;;;;;2.60;0.20;;;15.60;89.70;;;;;;4925279;29;20555;-72
2021/06/19 02:25:25;;;;;;;0.20;0.20;;;15.80;89.50;;;;;;4923080;29;20483;-70
2021/06/19 02:27:57;;;;;;;0.25;0.17;;;16.00;89.20;;;;;;4925383;29;20437;-70
2021/06/19 02:30:33;;;;;;;1.77;0.50;;;16.20;88.80;;;;;;4923782;29;20035;-71
2021/06/19 02:33:01;;;;;;;1.17;0.20;;;16.40;87.80;;;;;;4924002;29;20111;-70
2021/06/19 02:35:31;;;;;;;0.47;0.17;;;16.40;86.80;;;;;;4923718;29;20118;-71
2021/06/19 02:37:59;;;;;;;0.77;0.43;;;16.40;87.50;;;;;;4927634;29;20035;-70
2021/06/19 02:40:26;;;;;;;0.63;0.10;;;16.30;87.10;;;;;;4927160;29;20123;-72
2021/06/19 02:42:54;;;;;;;0.10;0.00;;;16.30;88.80;;;;;;4927424;29;20028;-70
2021/06/19 02:45:22;;;;;;;0.95;0.10;;;16.20;88.50;;;;;;4927395;29;20487;-69
2021/06/19 02:47:52;;;;;;;2.50;0.20;;;16.20;90.40;;;;;;4926434;29;20419;-71
2021/06/19 02:50:29;;;;;;;1.77;0.30;;;16.20;90.60;;;;;;4927684;29;20399;-73
2021/06/19 02:52:58;;;;;;;0.90;0.30;;;16.10;90.40;;;;;;4926072;29;20142;-74
2021/06/19 02:55:35;;;;;;;0.85;0.10;;;16.00;90.20;;;;;;4927017;29;20031;-73
2021/06/19 02:58:05;;;;;;;0.45;0.20;;;15.90;90.40;;;;;;4925600;29;20024;-73
2021/06/19 03:00:33;;;;;;;0.40;0.20;;;15.90;90.70;;;;;;4925144;29;20036;-73
2021/06/19 03:03:01;;;;;;;0.60;0.20;;;15.90;90.40;;;;;;4922835;29;20024;-72
2021/06/19 03:05:30;;;;;;;0.17;0.10;;;16.00;89.00;;;;;;4925414;29;20395;-73
2021/06/19 03:07:58;;;;;;;0.30;0.30;;;16.00;89.40;;;;;;4925399;29;20039;-73
2021/06/19 03:10:28;;;;;;;2.60;0.40;;;16.10;90.00;;;;;;4928938;29;20035;-77
2021/06/19 03:12:57;;;;;;;0.20;0.20;;;16.10;88.80;;;;;;4924503;29;20024;-73
2021/06/19 03:15:25;;;;;;;0.30;0.10;;;16.10;88.50;;;;;;4925900;29;20027;-73
2021/06/19 03:17:53;;;;;;;0.88;0.20;;;16.00;88.50;;;;;;4925372;29;20039;-72
2021/06/19 03:20:21;;;;;;;0.68;0.60;;;16.00;88.00;;;;;;4925955;29;20062;-73
2021/06/19 03:22:54;;;;;;;1.33;0.20;;;16.00;88.70;;;;;;4924938;29;20439;-74
2021/06/19 03:25:25;;;;;;;0.90;0.20;;;16.10;89.20;;;;;;4923717;29;20135;-75
2021/06/19 03:27:53;;;;;;;1.25;0.30;;;16.10;89.10;;;;;;4922724;29;20138;-73
2021/06/19 03:30:22;;;;;;;0.03;0.00;;;16.10;89.40;;;;;;4923742;29;20040;-74
2021/06/19 03:32:50;;;;;;;0.52;0.17;;;16.10;89.00;;;;;;4921800;29;20035;-73
2021/06/19 03:35:18;;;;;;;0.43;0.10;;;16.10;89.50;;;;;;4923945;29;20045;-72
2021/06/19 03:37:46;;;;;;;0.45;0.13;;;16.10;90.00;;;;;;4923788;29;20024;-74
2021/06/19 03:40:16;;;;;;;2.38;1.00;;;16.20;88.90;;;;;;4923325;29;20097;-73
2021/06/19 03:42:45;;;;;;;7.57;2.50;;;16.20;88.70;;;;;;4924067;29;20031;-73
2021/06/19 03:45:13;;;;;;;2.85;0.80;;;16.30;88.20;;;;;;4923970;29;20502;-74
2021/06/19 03:47:42;;;;;;;1.02;0.45;;;16.30;87.80;;;;;;4923143;29;20376;-73
2021/06/19 03:50:12;;;;;;;0.35;0.20;;;16.30;88.20;;;;;;4925739;29;20070;-73
2021/06/19 03:52:40;;;;;;;0.60;0.25;;;16.40;88.10;;;;;;4923476;29;20033;-72
2021/06/19 03:55:08;;;;;;;1.17;0.40;;;16.40;87.60;;;;;;4926030;29;20607;-75
2021/06/19 03:57:36;;;;;;;0.70;0.43;;;16.40;87.60;;;;;;4921115;29;20386;-74
2021/06/19 04:00:15;;;;;;;1.30;0.40;;;16.40;88.40;;;;;;4922097;29;20395;-75
2021/06/19 04:02:43;;;;;;;0.50;0.20;;;16.40;87.90;;;;;;4907055;29;20037;-76
2021/06/19 04:05:12;;;;;;;0.10;0.10;;;16.40;88.20;;;;;;4906625;29;20503;-72
2021/06/19 04:07:40;;;;;;;0.30;0.10;;;16.50;88.70;;;;;;4902372;29;20399;-72
2021/06/19 04:10:09;;;;;;;1.05;0.10;;;16.50;87.60;;;;;;4903691;29;20040;-74
2021/06/19 04:12:37;;;;;;;1.45;0.10;;;16.50;88.10;;;;;;4904979;29;20079;-73
2021/06/19 04:15:07;;;;;;;0.70;0.10;;;16.50;88.00;;;;;;4904850;29;20028;-74
2021/06/19 04:17:36;;;;;;;0.35;0.10;;;16.60;88.40;;;;;;4904147;29;20052;-76
2021/06/19 04:20:06;;;;;;;1.70;0.10;;;16.60;88.10;;;;;;4900873;29;20032;-70
2021/06/19 04:22:35;;;;;;;0.65;0.10;;;16.70;88.30;;;;;;4901306;29;20031;-72
2021/06/19 04:25:03;;;;;;;0.10;0.10;;;16.60;87.70;;;;;;4906589;29;20491;-71
2021/06/19 04:27:36;;;;;;;0.10;0.10;;;16.70;88.10;;;;;;4904167;29;20365;-73
2021/06/19 04:30:05;;;;;;;1.00;0.63;;;16.70;87.60;;;;;;4906408;29;20036;-72
2021/06/19 04:32:33;;;;;;;0.55;0.00;;;16.70;88.10;;;;;;4902862;29;20040;-74
2021/06/19 04:35:00;;;;;;;0.70;0.17;;;16.70;87.80;;;;;;4902834;29;20526;-74
2021/06/19 04:37:27;;;;;;;1.05;0.20;;;16.60;88.50;;;;;;4904459;29;20475;-75
2021/06/19 04:42:45;;;;;;;0.45;0.10;;;16.50;88.80;;;;;;4882483;29;20210;-72
2021/06/19 04:45:14;;;;;;;0.00;0.00;;;16.50;88.90;;;;;;4906966;29;20037;-71
2021/06/19 04:47:41;;;;;;;0.10;0.10;;;16.70;88.60;;;;;;4902666;29;20028;-72
2021/06/19 04:50:11;;;;;;;0.45;0.10;;;16.70;88.80;;;;;;4904922;29;20035;-73
2021/06/19 04:52:41;;;;;;;0.82;0.15;;;16.70;88.30;;;;;;4901652;29;20047;-73
2021/06/19 04:55:11;;;;;;;1.48;0.10;;;16.70;89.00;;;;;;4902246;29;20036;-74
2021/06/19 04:57:40;;;;;;;0.50;0.10;;;16.70;88.60;;;;;;4904825;29;20046;-73
2021/06/19 05:00:12;;;;;;;0.32;0.30;;;16.50;89.10;;;;;;4907969;29;20470;-74
2021/06/19 05:02:40;;;;;;;1.17;0.10;;;16.50;89.40;;;;;;4927872;29;20107;-73
2021/06/19 05:05:08;;;;;;;0.15;0.00;;;16.50;89.20;;;;;;4925896;29;20165;-75
2021/06/19 05:07:36;;;;;;;0.38;0.10;;;16.40;89.70;;;;;;4925251;29;20039;-73
2021/06/19 05:10:08;;;;;;;0.30;0.20;;;16.30;89.80;;;;;;4928202;29;20118;-73
2021/06/19 05:12:39;;;;;;;0.30;0.10;;;16.30;90.10;;;;;;4926885;29;20056;-75
2021/06/19 05:15:07;;;;;;;1.55;0.10;;;16.30;90.10;;;;;;4925738;29;20028;-73
2021/06/19 05:17:34;;;;;;;0.30;0.10;;;16.30;90.50;;;;;;4928559;29;20035;-73
2021/06/19 05:20:02;;;;;;;1.58;0.10;;;16.30;90.10;;;;;;4924265;29;20088;-76
2021/06/19 05:22:33;;;;;;;0.20;0.10;;;16.40;90.00;;;;;;4930856;29;20498;-74
2021/06/19 05:25:02;;;;;;;0.45;0.10;;;16.50;89.30;;;;;;4926008;29;20823;-75
2021/06/19 05:27:29;;;;;;;0.65;0.10;;;16.60;89.50;;;;;;4924595;29;20027;-73
2021/06/19 05:29:57;;;;;;;1.55;0.28;;;16.70;89.60;;;;;;4923046;29;20043;-75
2021/06/19 05:32:24;;;;;;;0.20;0.00;;;16.60;89.30;;;;;;4925845;29;20170;-74
2021/06/19 05:34:52;;;;;;;0.82;0.10;;;16.60;89.10;;;;;;4926553;29;20027;-74
2021/06/19 05:37:20;;;;;;;0.00;0.00;;;16.50;89.50;;;;;;4923636;29;20035;-75
2021/06/19 05:39:47;;;;;;;0.13;0.00;;;16.40;88.90;;;;;;4911084;29;20451;-74
2021/06/19 05:42:14;;;;;;;3.92;2.70;;;16.40;89.40;;;;;;4928250;29;20032;-77
2021/06/19 05:44:42;;;;;;;0.77;0.38;;;16.40;89.30;;;;;;4929331;29;20035;-76
2021/06/19 05:47:09;;;;;;;0.20;0.20;;;16.30;88.90;;;;;;4927165;29;20028;-75
2021/06/19 05:49:37;;;;;;;0.40;0.10;;;16.30;89.50;;;;;;4929852;29;20399;-76
2021/06/19 05:52:05;;;;;;;1.85;0.10;;;16.20;89.60;;;;;;4926678;29;20032;-74
2021/06/19 05:54:38;;;;;;;0.17;0.10;;;16.20;89.60;;;;;;4926993;29;20042;-76
2021/06/19 05:57:07;;;;;;;0.50;0.25;;;16.10;89.60;;;;;;4925500;29;20497;-75
2021/06/19 05:59:36;;;;;;;1.25;0.10;;;16.10;89.20;;;;;;4923860;29;20032;-75
2021/06/19 06:02:04;;;;;;;0.10;0.10;;;16.10;89.00;;;;;;4926378;29;20040;-74
2021/06/19 06:04:33;;;;;;;0.20;0.08;;;16.00;89.40;;;;;;4924110;29;20102;-77
2021/06/19 06:07:00;;;;;;;0.93;0.10;;;15.90;89.90;;;;;;4926173;29;20082;-76
2021/06/19 06:09:28;;;;;;;0.40;0.20;;;15.80;89.80;;;;;;4925686;29;20134;-77
2021/06/19 06:11:56;;;;;;;2.10;0.30;;;15.70;90.20;;;;;;4922698;29;20032;-78
2021/06/19 06:14:23;;;;;;;0.28;0.10;;;15.70;90.20;;;;;;4926791;29;20040;-77
2021/06/19 06:16:51;;;;;;;2.00;1.20;;;15.70;90.30;;;;;;4924670;29;20028;-77
2021/06/19 06:19:19;;;;;;;5.40;2.13;;;15.60;90.20;;;;;;4923357;29;20039;-76
2021/06/19 06:21:48;;;;;;;2.15;1.10;;;15.70;90.20;;;;;;4925536;29;20034;-76
2021/06/19 06:24:17;;;;;;;6.97;2.83;;;15.80;89.60;;;;;;4925616;29;20409;-73
2021/06/19 06:26:45;;;;;;;4.72;2.60;;;16.00;89.40;;;;;;4924893;29;20091;-73
2021/06/19 06:29:13;;;;;;;4.10;1.83;;;15.90;89.50;;;;;;4926784;29;20411;-73
2021/06/19 06:31:40;;;;;;;1.60;0.40;;;15.80;89.50;;;;;;4927932;29;20048;-73
2021/06/19 06:34:08;;;;;;;3.42;0.40;;;15.60;90.10;;;;;;4924539;29;20325;-74
2021/06/19 06:36:35;;;;;;;0.90;0.30;;;15.50;89.70;;;;;;4927421;29;20024;-74
2021/06/19 06:39:04;;;;;;;5.63;1.48;;;15.40;89.90;;;;;;4924113;29;20046;-73
2021/06/19 06:41:32;;;;;;;1.00;0.60;;;15.30;90.10;;;;;;4926377;29;20032;-75
2021/06/19 06:44:00;;;;;;;1.20;0.50;;;15.20;90.30;;;;;;4926645;29;20040;-72
2021/06/19 06:46:27;;;;;;;0.90;0.55;;;15.10;90.30;;;;;;4926780;29;20042;-73
2021/06/19 06:48:54;;;;;;;0.75;0.30;;;15.00;90.50;;;;;;4922317;29;20134;-72
2021/06/19 06:51:22;;;;;;;4.03;1.48;;;14.90;90.80;;;;;;4923527;29;20535;-72
2021/06/19 06:53:49;;;;;;;1.40;0.30;;;14.80;90.80;;;;;;4926102;29;20930;-72
2021/06/19 06:56:17;;;;;;;1.00;0.80;;;14.80;90.90;;;;;;4927384;29;20045;-73
2021/06/19 06:58:45;;;;;;;2.58;0.63;;;14.80;90.90;;;;;;4928443;29;20562;-72
2021/06/19 07:01:12;;;;;;;2.05;0.68;;;14.70;91.10;;;;;;4925172;29;20526;-71
2021/06/19 07:03:39;;;;;;;1.70;0.40;;;14.70;90.70;;;;;;4926583;29;20020;-75
2021/06/19 07:06:07;;;;;;;3.20;0.60;;;14.70;90.90;;;;;;4924991;29;20066;-74
2021/06/19 07:08:34;;;;;;;1.30;0.45;;;14.70;90.90;;;;;;4927760;29;20039;-72
2021/06/19 07:11:02;;;;;;;0.28;0.28;;;14.60;90.80;;;;;;4923276;29;20348;-71
2021/06/19 07:13:29;;;;;;;2.80;0.90;;;14.60;90.90;;;;;;4925253;29;20024;-72
2021/06/19 07:15:56;;;;;;;1.40;0.55;;;14.50;91.10;;;;;;4927174;29;20091;-72
2021/06/19 07:18:24;;;;;;;3.75;0.68;;;14.50;91.10;;;;;;4928922;29;20149;-73
2021/06/19 07:20:52;;;;;;;0.77;0.10;;;14.50;90.90;;;;;;4923653;29;20107;-73
2021/06/19 07:23:20;;;;;;;1.30;0.40;;;14.50;90.90;;;;;;4925102;29;20036;-72
2021/06/19 07:25:48;;;;;;;3.08;0.30;;;14.40;91.00;;;;;;4928947;29;20079;-72
2021/06/19 07:28:15;;;;;;;2.47;0.30;;;14.40;91.20;;;;;;4921875;29;20518;-73
2021/06/19 07:30:43;;;;;;;1.23;0.40;;;14.40;91.10;;;;;;4923630;29;20533;-72
2021/06/19 07:33:10;;;;;;;0.88;0.28;;;14.40;91.00;;;;;;4922460;29;20043;-72
2021/06/19 07:35:37;;;;;;;0.40;0.40;;;14.30;91.10;;;;;;4929710;29;20038;-72
2021/06/19 07:38:05;;;;;;;3.08;2.00;;;14.30;91.00;;;;;;4929247;29;20027;-71
2021/06/19 07:40:33;;;;;;;2.38;0.60;;;14.30;90.90;;;;;;4923745;29;20491;-73
2021/06/19 07:43:01;;;;;;;1.88;0.70;;;14.20;91.10;;;;;;4923024;29;20036;-73
2021/06/19 07:45:29;;;;;;;3.42;0.68;;;14.10;91.20;;;;;;4926677;29;20127;-72
2021/06/19 07:47:56;;;;;;;0.57;0.22;;;14.00;91.40;;;;;;4924128;29;20039;-72
2021/06/19 07:50:23;;;;;;;3.97;0.30;;;13.90;91.40;;;;;;4921780;29;20479;-74
2021/06/19 07:52:51;;;;;;;1.33;0.32;;;13.90;91.40;;;;;;4924326;29;20043;-73
2021/06/19 07:55:19;;;;;;;1.48;0.50;;;13.90;91.40;;;;;;4922109;29;20031;-76
2021/06/19 07:57:47;;;;;;;0.85;0.30;;;13.90;91.20;;;;;;4922916;29;20482;-73
2021/06/19 08:00:15;;;;;;;0.73;0.30;;;13.90;91.30;;;;;;4928931;29;20118;-72
2021/06/19 08:02:43;;;;;;;3.45;0.47;;;13.80;91.40;;;;;;4905356;29;20179;-74
2021/06/19 08:05:12;;;;;;;0.88;0.50;;;13.80;91.40;;;;;;4906770;29;20038;-72
2021/06/19 08:07:40;;;;;;;0.60;0.35;;;13.70;91.50;;;;;;4904410;29;20032;-73
2021/06/19 08:10:09;;;;;;;3.88;0.52;;;13.70;91.50;;;;;;4914010;29;20036;-73
2021/06/19 08:12:37;;;;;;;1.33;0.40;;;13.70;91.50;;;;;;4906182;29;20487;-73
2021/06/19 08:15:06;;;;;;;2.55;0.30;;;13.70;91.60;;;;;;4904464;29;20043;-71
2021/06/19 08:17:33;;;;;;;2.50;0.45;;;13.60;91.70;;;;;;4907857;29;20482;-72
2021/06/19 08:20:01;;;;;;;2.70;0.30;;;13.60;91.70;;;;;;4908879;29;20036;-71
2021/06/19 08:22:29;;;;;;;0.80;0.30;;;13.50;91.90;;;;;;4916523;29;20083;-71
2021/06/19 08:24:56;;;;;;;5.53;0.40;;;13.40;91.80;;;;;;4920035;29;20028;-72
2021/06/19 08:27:25;;;;;;;0.70;0.50;;;13.40;92.00;;;;;;4911122;29;20494;-73
2021/06/19 08:29:53;;;;;;;4.95;0.25;;;13.40;91.90;;;;;;4910119;29;20044;-73
2021/06/19 08:32:21;;;;;;;3.30;0.30;;;13.30;91.80;;;;;;4909931;29;20475;-71
2021/06/19 08:34:49;;;;;;;2.08;0.93;;;13.30;91.80;;;;;;4913397;29;20040;-72
2021/06/19 08:37:16;;;;;;;0.73;0.38;;;13.30;91.70;;;;;;4910309;29;20032;-73
2021/06/19 08:39:44;;;;;;;0.57;0.30;;;13.40;91.60;;;;;;4912169;29;20024;-72
2021/06/19 08:42:12;;;;;;;2.30;0.57;;;13.40;91.70;;;;;;4914390;29;20035;-73
2021/06/19 08:44:44;;;;;;;1.60;0.32;;;13.40;91.60;;;;;;4895976;29;20756;-71
2021/06/19 08:47:13;;;;;;;1.00;0.28;;;13.40;91.50;;;;;;4911476;29;20043;-74
2021/06/19 08:49:41;;;;;;;1.95;0.35;;;13.40;91.40;;;;;;4911745;29;20039;-73
2021/06/19 08:52:09;;;;;;;1.42;0.30;;;13.50;91.20;;;;;;4908881;29;20056;-70
2021/06/19 08:54:40;;;;;;;1.55;0.30;;;13.40;91.10;;;;;;4913168;29;20040;-73
2021/06/19 08:57:16;;;;;;;1.45;0.30;;;13.40;91.20;;;;;;4910243;29;20028;-73
2021/06/19 08:59:51;;;;;;;0.60;0.25;;;13.30;91.30;;;;;;4907398;29;20059;-77
2021/06/19 09:02:20;;;;;;;3.58;0.40;;;13.30;91.40;;;;;;4922626;29;20190;-70
2021/06/19 09:04:58;;;;;;;1.65;0.38;;;13.30;91.50;;;;;;4925514;29;21074;-71
2021/06/19 09:07:38;;;;;;;0.82;0.30;;;13.20;91.60;;;;;;4928594;29;20031;-71
2021/06/19 09:10:34;;;;;;;5.38;0.43;;;13.10;91.60;;;;;;4923918;29;20039;-71
2021/06/19 09:13:22;;;;;;;0.70;0.30;;;13.10;91.80;;;;;;4926916;29;20480;-72
2021/06/19 09:15:54;;;;;;;0.82;0.30;;;13.00;91.70;;;;;;4926362;29;20055;-72
2021/06/19 09:18:27;;;;;;;2.65;0.70;;;13.00;91.80;;;;;;4924194;29;20483;-74
2021/06/19 09:21:04;;;;;;;1.55;0.30;;;13.00;91.80;;;;;;4916411;29;20035;-73
2021/06/19 09:23:35;;;;;;;0.57;0.20;;;12.90;91.90;;;;;;4920774;29;20566;-71
2021/06/19 09:26:31;;;;;;;3.38;0.57;;;13.00;91.60;;;;;;4925616;29;20043;-71
2021/06/19 09:29:14;;;;;;;3.33;0.40;;;13.10;91.60;;;;;;4915828;29;20146;-72
2021/06/19 09:31:50;;;;;;;0.80;0.30;;;13.10;91.20;;;;;;4924759;29;22660;-73
2021/06/19 09:34:19;;;;;;;;;;;13.20;91.10;;;;;;4921336;29;20551;-70
2021/06/19 09:36:51;;;;;;;0.75;0.38;;;13.30;90.90;;;;;;4923779;29;19926;-72
2021/06/19 09:39:30;;;;;;;0.60;0.20;;;13.30;90.60;;;;;;4919755;29;20087;-72
2021/06/19 09:41:58;;;;;;;1.70;0.40;;;13.40;90.70;;;;;;4924868;29;20032;-70
2021/06/19 09:44:42;;;;;;;1.42;0.63;;;13.40;90.60;;;;;;4920050;29;20043;-70
2021/06/19 09:47:11;;;;;;;1.77;0.98;;;13.40;90.50;;;;;;4927486;29;20028;-72
2021/06/19 09:49:41;;;;;;;4.03;1.00;;;13.30;90.50;;;;;;4924494;29;20031;-70
2021/06/19 09:52:11;;;;;;;2.50;0.40;;;13.20;90.70;;;;;;4925331;29;20032;-70
2021/06/19 09:54:43;;;;;;;4.32;0.32;;;13.10;90.60;;;;;;4921648;29;20036;-73
2021/06/19 09:57:14;;;;;;;1.10;0.38;;;13.10;90.80;;;;;;4923012;29;20048;-74
2021/06/19 09:59:42;;;;;;;0.47;0.30;;;13.10;90.70;;;;;;4927686;29;20526;-74
2021/06/19 10:02:20;;;;;;;0.65;0.35;;;13.10;90.50;;;;;;4924478;29;20123;-71
2021/06/19 10:04:54;;;;;;;1.80;0.35;;;13.10;90.50;;;;;;4919359;29;20028;-71
2021/06/19 10:07:23;;;;;;;3.55;0.47;;;13.00;90.60;;;;;;4926821;29;20947;-74
2021/06/19 10:09:53;;;;;;;0.57;0.20;;;12.90;90.70;;;;;;4923827;29;20040;-72
2021/06/19 10:12:23;;;;;;;1.30;0.40;;;13.00;90.70;;;;;;4926527;29;20380;-71
2021/06/19 10:15:16;;;;;;;2.30;0.30;;;12.90;90.60;;;;;;4922199;29;20043;-71
2021/06/19 10:17:46;;;;;;;1.67;0.50;;;12.90;90.50;;;;;;4913802;29;20119;-72
2021/06/19 10:20:16;;;;;;;1.55;0.10;;;12.90;90.60;;;;;;4920979;29;20572;-73
2021/06/19 10:22:44;;;;;;;1.95;0.73;;;12.90;90.50;;;;;;4913152;29;20394;-72
2021/06/19 10:25:15;;;;;;;1.77;0.32;;;12.90;90.40;;;;;;4927092;29;20020;-72
2021/06/19 10:27:48;;;;;;;3.03;0.52;;;12.90;90.40;;;;;;4922883;29;20387;-72
2021/06/19 10:30:17;;;;;;;2.35;0.63;;;12.80;90.60;;;;;;4922200;29;20396;-70
2021/06/19 10:32:47;;;;;;;1.83;0.20;;;12.80;90.60;;;;;;4914917;29;20034;-69
2021/06/19 10:35:21;;;;;;;0.90;0.13;;;12.80;90.60;;;;;;4921085;29;20043;-71
2021/06/19 10:37:50;;;;;;;1.33;0.10;;;12.80;90.60;;;;;;4914656;29;20035;-71
2021/06/19 10:40:21;;;;;;;2.13;0.63;;;12.80;90.70;;;;;;4904269;29;20051;-70
2021/06/19 10:42:50;;;;;;;1.90;0.55;;;12.70;90.80;;;;;;4929728;29;20383;-70
2021/06/19 10:45:23;;;;;;;0.25;0.10;;;12.70;90.70;;;;;;4927085;29;20056;-70
2021/06/19 10:48:12;;;;;;;3.03;0.40;;;12.60;90.90;;;;;;4922518;29;20067;-71
2021/06/19 10:50:45;;;;;;;5.82;1.55;;;12.60;90.80;;;;;;4919531;29;20247;-71
2021/06/19 10:53:18;;;;;;;2.22;0.73;;;12.60;90.80;;;;;;4917693;29;21391;-70
2021/06/19 10:55:53;;;;;;;3.33;0.40;;;12.70;90.70;;;;;;4921958;29;20110;-70
2021/06/19 10:58:23;;;;;;;1.05;0.25;;;12.70;90.70;;;;;;4919995;29;20035;-70
2021/06/19 11:01:11;;;;;;;1.20;0.50;;;12.70;90.70;;;;;;4921896;29;20080;-70
2021/06/19 11:03:50;;;;;;;1.85;0.30;;;12.70;90.90;;;;;;4922705;29;20042;-72
2021/06/19 11:06:40;;;;;;;1.38;0.35;;;12.70;90.80;;;;;;4921406;29;20034;-70
2021/06/19 11:09:16;;;;;;;0.55;0.25;;;12.80;90.70;;;;;;4923075;29;20023;-69
2021/06/19 11:11:47;;;;;;;1.90;0.30;;;12.80;90.70;;;;;;4923422;29;20024;-70
2021/06/19 11:14:34;;;;;;;2.80;0.30;;;12.80;90.70;;;;;;4922559;29;20114;-71
2021/06/19 11:17:01;;;;;;;0.88;0.60;;;12.80;90.60;;;;;;4924088;29;20619;-69
2021/06/19 11:20:05;;;;;;;4.13;0.57;;;12.90;90.70;;;;;;4923444;29;20031;-70
2021/06/19 11:22:58;;;;;;;1.75;0.30;;;12.90;90.40;;;;;;4931000;29;20042;-69
2021/06/19 11:26:03;;;;;;;2.67;0.55;;;13.00;90.40;;;;;;4924771;29;20074;-70
2021/06/19 11:28:31;;;;;;;2.05;0.20;;;12.90;90.40;;;;;;4922915;29;20046;-70
2021/06/19 11:31:01;;;;;;;0.95;0.60;;;13.00;90.40;;;;;;4921103;29;20090;-70
2021/06/19 11:33:35;;;;;;;1.92;0.20;;;13.00;90.40;;;;;;4923976;29;20079;-70
2021/06/19 11:36:05;;;;;;;0.45;0.20;;;13.10;90.30;;;;;;4928288;29;20077;-70
2021/06/19 11:38:49;;;;;;;1.23;0.20;;;13.10;90.50;;;;;;4926571;29;20020;-71
2021/06/19 11:41:19;;;;;;;0.70;0.30;;;13.10;90.20;;;;;;4923462;29;20541;-72
2021/06/19 11:43:47;;;;;;;2.60;0.20;;;13.10;90.20;;;;;;4921382;29;20145;-71
2021/06/19 11:46:19;;;;;;;3.53;0.43;;;13.10;90.20;;;;;;4924405;29;20110;-70
2021/06/19 11:48:54;;;;;;;1.27;0.20;;;13.10;90.30;;;;;;4926492;29;20036;-70
2021/06/19 11:51:32;;;;;;;0.23;0.20;;;13.10;90.30;;;;;;4928682;29;20371;-73
2021/06/19 11:54:00;;;;;;;3.88;0.43;;;13.10;90.30;;;;;;4929759;29;20434;-71
2021/06/19 11:56:32;;;;;;;0.40;0.20;;;13.10;90.30;;;;;;4925814;29;20360;-69
2021/06/19 11:59:04;;;;;;;1.25;0.30;;;13.10;90.40;;;;;;4924333;29;20036;-73
2021/06/19 12:01:39;;;;;;;2.53;0.25;;;13.10;90.40;;;;;;4924143;29;20051;-73
2021/06/19 12:04:18;;;;;;;0.30;0.17;;;13.10;90.40;;;;;;4929566;29;20038;-74
2021/06/19 12:06:54;;;;;;;1.02;0.17;;;13.10;90.50;;;;;;4920527;29;20490;-73
2021/06/19 12:09:28;;;;;;;2.17;0.40;;;13.10;90.50;;;;;;4921813;29;20084;-72
2021/06/19 12:12:02;;;;;;;3.15;0.32;;;13.10;90.60;;;;;;4924799;29;20060;-70
2021/06/19 12:14:33;;;;;;;2.65;0.30;;;13.10;90.60;;;;;;4919315;29;20106;-71
2021/06/19 12:17:05;;;;;;;5.70;0.50;;;13.10;90.50;;;;;;4926659;29;20039;-71
2021/06/19 12:19:38;;;;;;;5.15;0.43;;;13.10;90.30;;;;;;4925729;29;20091;-72
2021/06/19 12:22:09;;;;;;;4.03;0.30;;;13.20;90.40;;;;;;4921821;29;20200;-71
2021/06/19 12:24:37;;;;;;;2.08;0.28;;;13.10;90.40;;;;;;4925248;29;20028;-74
2021/06/19 12:27:15;;;;;;;1.05;0.20;;;13.10;90.50;;;;;;4924840;29;20031;-71
2021/06/19 12:29:43;;;;;;;0.85;0.38;;;13.10;90.40;;;;;;4921820;29;20118;-71
2021/06/19 12:32:21;;;;;;;1.05;0.60;;;13.10;90.50;;;;;;4921485;29;20032;-71
2021/06/19 12:34:50;;;;;;;1.67;0.28;;;13.10;90.50;;;;;;4927189;29;20036;-72
2021/06/19 12:37:22;;;;;;;2.05;1.08;;;13.10;90.60;;;;;;4926550;29;20019;-72
2021/06/19 12:39:49;;;;;;;0.88;0.30;;;13.10;90.60;;;;;;4926168;29;20034;-74
2021/06/19 12:42:43;;;;;;;1.20;0.22;;;13.10;90.50;;;;;;4924394;29;20032;-71
2021/06/19 12:45:12;;;;;;;2.75;0.10;;;13.10;90.60;;;;;;4927046;29;20024;-71
2021/06/19 12:47:43;;;;;;;4.38;0.55;;;13.00;90.50;;;;;;4925241;29;20020;-73
2021/06/19 12:50:15;;;;;;;0.28;0.20;;;13.00;90.50;;;;;;4926918;29;20391;-72
2021/06/19 12:53:04;;;;;;;1.63;1.15;;;13.00;90.70;;;;;;4927626;29;20028;-73
2021/06/19 12:55:37;;;;;;;0.60;0.30;;;12.90;90.70;;;;;;4925115;29;20448;-71
2021/06/19 12:58:18;;;;;;;1.00;0.30;;;12.90;90.90;;;;;;4925001;29;20034;-74
2021/06/19 13:00:56;;;;;;;1.58;0.30;;;12.90;91.00;;;;;;4926964;29;20033;-70
2021/06/19 13:03:44;;;;;;;3.00;0.20;;;12.90;91.10;;;;;;4925799;29;20028;-72
2021/06/19 13:06:15;;;;;;;4.43;0.22;;;12.90;91.10;;;;;;4929273;29;20528;-71
2021/06/19 13:08:53;;;;;;;0.90;0.20;;;12.90;91.10;;;;;;4924517;29;20087;-74